createdAt,value
2023-10-06T00:02:29.944Z,51.48
2023-10-06T00:04:57.974Z,51.35
2023-10-06T00:07:25.726Z,51.32
2023-10-06T00:09:55.189Z,51.29
2023-10-06T00:12:21.887Z,51.25
2023-10-06T00:14:51.548Z,51.31
2023-10-06T00:17:18.967Z,51.14
2023-10-06T00:19:46.800Z,51.14
2023-10-06T00:22:16.240Z,50.98
2023-10-06T00:24:43.279Z,51.00
2023-10-06T00:27:14.113Z,51.03
2023-10-06T00:29:45.319Z,51.14
2023-10-06T00:32:24.309Z,51.05
2023-10-06T00:34:53.869Z,50.94
2023-10-06T00:37:24.529Z,50.74
2023-10-06T00:39:55.857Z,50.90
2023-10-06T00:42:22.723Z,50.95
2023-10-06T00:44:49.642Z,50.77
2023-10-06T00:47:17.005Z,50.82
2023-10-06T00:49:44.712Z,50.69
2023-10-06T00:52:13.302Z,50.61
2023-10-06T00:54:44.213Z,50.82
2023-10-06T00:57:13.819Z,50.72
2023-10-06T00:59:42.582Z,50.77
2023-10-06T01:02:12.601Z,50.80
2023-10-06T01:04:47.087Z,50.88
2023-10-06T01:07:14.955Z,50.66
2023-10-06T01:09:57.927Z,50.65
2023-10-06T01:12:32.431Z,50.59
2023-10-06T01:15:16.856Z,50.55
2023-10-06T01:17:44.586Z,50.37
2023-10-06T01:20:12.441Z,50.32
2023-10-06T01:22:45.678Z,50.23
2023-10-06T01:25:23.440Z,50.33
2023-10-06T01:27:51.606Z,50.11
2023-10-06T01:30:19.542Z,50.14
2023-10-06T01:32:50.259Z,50.18
2023-10-06T01:35:16.997Z,50.15
2023-10-06T01:37:44.771Z,50.01
2023-10-06T01:40:38.244Z,49.96
2023-10-06T01:43:11.294Z,49.97
2023-10-06T01:45:45.038Z,49.77
2023-10-06T01:48:15.076Z,49.80
2023-10-06T01:50:42.406Z,49.68
2023-10-06T01:53:11.852Z,49.80
2023-10-06T01:55:39.734Z,49.67
2023-10-06T01:58:08.753Z,49.69
2023-10-06T02:00:37.185Z,49.61
2023-10-06T02:03:13.630Z,49.68
2023-10-06T02:05:40.265Z,49.50
2023-10-06T02:08:22.425Z,49.68
2023-10-06T02:10:49.392Z,49.36
2023-10-06T02:13:22.736Z,49.22
2023-10-06T02:16:00.292Z,49.35
2023-10-06T02:18:45.854Z,49.35
2023-10-06T02:21:32.657Z,49.27
2023-10-06T02:24:05.186Z,49.02
2023-10-06T02:26:38.657Z,49.00
2023-10-06T02:29:12.609Z,49.11
2023-10-06T02:31:42.546Z,48.95
2023-10-06T02:34:15.833Z,49.02
2023-10-06T02:36:43.072Z,48.93
2023-10-06T02:39:09.971Z,48.95
2023-10-06T02:41:38.098Z,48.78
2023-10-06T02:44:20.379Z,48.70
2023-10-06T02:46:47.033Z,48.68
2023-10-06T02:49:13.770Z,48.51
2023-10-06T02:51:48.711Z,48.71
2023-10-06T02:54:15.520Z,48.55
2023-10-06T02:56:43.497Z,48.32
2023-10-06T02:59:22.844Z,48.66
2023-10-06T03:01:55.438Z,48.69
2023-10-06T03:04:24.054Z,48.58
2023-10-06T03:06:54.738Z,48.50
2023-10-06T03:09:44.494Z,48.38
2023-10-06T03:12:27.608Z,48.41
2023-10-06T03:14:55.359Z,48.25
2023-10-06T03:17:22.351Z,48.26
2023-10-06T03:20:18.288Z,48.18
2023-10-06T03:22:46.469Z,48.23
2023-10-06T03:25:17.665Z,48.08
2023-10-06T03:27:50.861Z,48.11
2023-10-06T03:30:27.925Z,48.25
2023-10-06T03:32:55.081Z,48.19
2023-10-06T03:35:46.618Z,48.10
2023-10-06T03:38:19.465Z,48.18
2023-10-06T03:40:49.353Z,48.19
2023-10-06T03:43:16.009Z,47.93
2023-10-06T03:45:45.041Z,47.84
2023-10-06T03:48:13.302Z,48.00
2023-10-06T03:50:44.164Z,48.02
2023-10-06T03:53:13.381Z,47.95
2023-10-06T03:55:41.225Z,48.06
2023-10-06T03:58:12.161Z,47.95
2023-10-06T04:00:41.266Z,47.82
2023-10-06T04:03:14.838Z,47.78
2023-10-06T04:05:52.398Z,47.88
2023-10-06T04:08:22.538Z,47.68
2023-10-06T04:10:52.884Z,47.59
2023-10-06T04:13:20.180Z,47.53
2023-10-06T04:15:50.602Z,47.49
2023-10-06T04:18:26.203Z,47.47
2023-10-06T04:20:54.932Z,47.43
2023-10-06T04:23:25.243Z,47.35
2023-10-06T04:25:56.755Z,47.14
2023-10-06T04:28:26.607Z,47.32
2023-10-06T04:30:54.684Z,47.22
2023-10-06T04:33:21.345Z,47.05
2023-10-06T04:36:08.749Z,47.13
2023-10-06T04:38:39.144Z,47.04
2023-10-06T04:41:10.475Z,47.44
2023-10-06T04:43:38.866Z,47.50
2023-10-06T04:46:06.651Z,47.35
2023-10-06T04:48:34.058Z,47.29
2023-10-06T04:51:04.134Z,47.11
2023-10-06T04:53:36.130Z,47.04
2023-10-06T04:56:12.455Z,47.07
2023-10-06T04:58:43.346Z,47.16
2023-10-06T05:01:12.155Z,46.64
2023-10-06T05:03:44.987Z,47.11
2023-10-06T05:06:18.037Z,46.87
2023-10-06T05:08:48.602Z,46.87
2023-10-06T05:11:20.686Z,46.99
2023-10-06T05:13:50.834Z,46.92
2023-10-06T05:16:20.131Z,46.73
2023-10-06T05:18:46.992Z,46.86
2023-10-06T05:21:13.574Z,46.62
2023-10-06T05:23:40.120Z,46.47
2023-10-06T05:26:11.802Z,46.50
2023-10-06T05:28:38.677Z,46.62
2023-10-06T05:31:08.624Z,46.47
2023-10-06T05:33:35.651Z,46.43
2023-10-06T05:36:13.128Z,46.36
2023-10-06T05:38:40.140Z,46.41
2023-10-06T05:41:12.470Z,46.44
2023-10-06T05:43:40.367Z,46.46
2023-10-06T05:46:07.260Z,46.22
2023-10-06T05:48:35.375Z,46.32
2023-10-06T05:51:11.073Z,46.36
2023-10-06T05:53:42.700Z,46.15
2023-10-06T05:56:09.964Z,46.24
2023-10-06T05:58:38.681Z,46.01
2023-10-06T06:01:12.302Z,45.99
2023-10-06T06:03:47.299Z,46.10
2023-10-06T06:06:23.821Z,46.12
2023-10-06T06:08:54.102Z,46.04
2023-10-06T06:11:21.377Z,46.01
2023-10-06T06:13:58.888Z,46.07
2023-10-06T06:16:33.768Z,46.11
2023-10-06T06:19:00.382Z,46.18
2023-10-06T06:21:27.458Z,46.31
2023-10-06T06:23:57.003Z,46.32
2023-10-06T06:26:24.270Z,46.37
2023-10-06T06:28:50.875Z,46.09
2023-10-06T06:31:19.591Z,46.46
2023-10-06T06:33:50.420Z,46.37
2023-10-06T06:36:17.267Z,46.00
2023-10-06T06:38:43.797Z,46.22
2023-10-06T06:41:10.402Z,45.95
2023-10-06T06:43:37.046Z,46.12
2023-10-06T06:46:03.668Z,46.21
2023-10-06T06:48:30.321Z,46.41
2023-10-06T06:50:56.902Z,46.29
2023-10-06T06:53:23.460Z,46.06
2023-10-06T06:55:50.186Z,46.12
2023-10-06T06:58:17.925Z,46.03
2023-10-06T07:00:47.555Z,46.41
2023-10-06T07:03:16.020Z,46.13
2023-10-06T07:05:44.240Z,45.96
2023-10-06T07:08:12.777Z,45.88
2023-10-06T07:10:44.724Z,46.08
2023-10-06T07:13:11.985Z,45.84
2023-10-06T07:15:38.547Z,46.09
2023-10-06T07:18:06.234Z,45.99
2023-10-06T07:20:33.981Z,45.90
2023-10-06T07:23:01.869Z,45.89
2023-10-06T07:25:30.027Z,45.91
2023-10-06T07:27:59.128Z,45.84
2023-10-06T07:30:28.522Z,46.40
2023-10-06T07:32:56.211Z,46.11
2023-10-06T07:35:43.612Z,46.44
2023-10-06T07:38:15.429Z,46.27
2023-10-06T07:40:43.685Z,46.24
2023-10-06T07:43:11.409Z,46.39
2023-10-06T07:45:38.037Z,46.14
2023-10-06T07:48:08.089Z,46.31
2023-10-06T07:50:35.976Z,46.18
2023-10-06T07:53:03.023Z,46.27
2023-10-06T07:55:29.783Z,46.22
2023-10-06T07:57:56.489Z,46.37
2023-10-06T08:00:30.049Z,46.25
2023-10-06T08:03:01.037Z,46.60
2023-10-06T08:05:31.168Z,46.53
2023-10-06T08:08:01.347Z,46.58
2023-10-06T08:10:31.793Z,46.63
2023-10-06T08:13:02.166Z,46.87
2023-10-06T08:15:29.369Z,46.83
2023-10-06T08:17:57.475Z,46.36
2023-10-06T08:20:28.676Z,46.84
2023-10-06T08:22:55.834Z,46.76
2023-10-06T08:25:25.130Z,46.87
2023-10-06T08:27:52.597Z,47.03
2023-10-06T08:30:20.993Z,47.86
2023-10-06T08:32:58.627Z,48.70
2023-10-06T08:35:25.318Z,48.68
2023-10-06T08:37:58.011Z,48.38
2023-10-06T08:40:24.985Z,48.33
2023-10-06T08:42:53.264Z,47.87
2023-10-06T08:45:30.445Z,47.81
2023-10-06T08:48:04.670Z,47.73
2023-10-06T08:50:34.757Z,47.95
2023-10-06T08:53:03.161Z,47.96
2023-10-06T08:55:30.389Z,48.20
2023-10-06T08:58:02.781Z,47.97
2023-10-06T09:00:32.478Z,47.89
2023-10-06T09:03:08.550Z,47.64
2023-10-06T09:05:38.815Z,47.71
2023-10-06T09:08:08.677Z,47.69
2023-10-06T09:10:41.912Z,47.79
2023-10-06T09:13:18.346Z,47.76
2023-10-06T09:15:56.699Z,47.57
2023-10-06T09:18:28.416Z,47.61
2023-10-06T09:20:57.330Z,47.54
2023-10-06T09:23:32.149Z,47.44
2023-10-06T09:26:03.287Z,47.38
2023-10-06T09:28:30.251Z,47.50
2023-10-06T09:31:02.796Z,47.59
2023-10-06T09:33:39.414Z,47.33
2023-10-06T09:36:32.105Z,47.45
2023-10-06T09:39:02.428Z,47.33
2023-10-06T09:41:30.449Z,47.24
2023-10-06T09:44:11.053Z,47.13
2023-10-06T09:46:42.712Z,47.31
2023-10-06T09:49:17.290Z,47.15
2023-10-06T09:51:45.123Z,47.17
2023-10-06T09:54:12.600Z,47.33
2023-10-06T09:56:42.730Z,47.31
2023-10-06T09:59:14.817Z,47.40
2023-10-06T10:01:46.995Z,47.39
2023-10-06T10:04:15.220Z,47.28
2023-10-06T10:06:45.806Z,47.34
2023-10-06T10:09:19.149Z,47.39
2023-10-06T10:11:58.318Z,47.37
2023-10-06T10:15:03.949Z,47.33
2023-10-06T10:17:49.278Z,47.48
2023-10-06T10:20:17.390Z,47.44
2023-10-06T10:22:44.425Z,47.31
2023-10-06T10:27:45.005Z,47.47
2023-10-06T10:30:14.077Z,47.38
2023-10-06T10:32:53.289Z,47.51
2023-10-06T10:35:20.259Z,47.76
2023-10-06T10:38:05.854Z,47.54
2023-10-06T10:40:47.917Z,47.47
2023-10-06T10:43:15.704Z,47.49
2023-10-06T10:45:46.120Z,47.41
2023-10-06T10:48:15.445Z,47.43
2023-10-06T10:50:54.359Z,47.53
2023-10-06T10:53:24.330Z,47.61
2023-10-06T10:55:51.842Z,47.26
2023-10-06T10:58:43.495Z,47.36
2023-10-06T11:01:28.602Z,47.54
2023-10-06T11:04:20.011Z,47.66
2023-10-06T11:06:50.629Z,47.45
2023-10-06T11:09:31.772Z,47.50
2023-10-06T11:12:20.164Z,47.29
2023-10-06T11:14:47.667Z,47.53
2023-10-06T11:17:14.443Z,47.33
2023-10-06T11:19:41.613Z,47.52
2023-10-06T11:22:23.706Z,47.25
2023-10-06T11:24:51.949Z,46.78
2023-10-06T11:27:23.643Z,46.86
2023-10-06T11:29:54.265Z,46.85
2023-10-06T11:32:23.012Z,46.77
2023-10-06T11:34:51.954Z,47.08
2023-10-06T11:37:21.892Z,47.17
2023-10-06T11:39:50.328Z,47.04
2023-10-06T11:42:31.125Z,47.22
2023-10-06T11:44:59.320Z,47.34
2023-10-06T11:47:29.083Z,47.11
2023-10-06T11:49:56.072Z,46.56
2023-10-06T11:52:22.957Z,46.44
2023-10-06T11:54:49.744Z,46.48
2023-10-06T11:57:16.867Z,46.25
2023-10-06T11:59:50.827Z,45.97
2023-10-06T12:02:18.117Z,45.92
2023-10-06T12:04:45.515Z,45.92
2023-10-06T12:07:25.153Z,45.82
2023-10-06T12:09:53.253Z,45.84
2023-10-06T12:12:19.889Z,45.93
2023-10-06T12:14:46.691Z,46.14
2023-10-06T12:17:16.080Z,46.14
2023-10-06T12:19:45.698Z,46.00
2023-10-06T12:22:14.766Z,46.06
2023-10-06T12:24:43.691Z,46.12
2023-10-06T12:27:10.833Z,45.96
2023-10-06T12:29:37.418Z,45.97
2023-10-06T12:32:05.528Z,46.10
2023-10-06T12:34:32.993Z,46.04
2023-10-06T12:37:03.392Z,45.90
2023-10-06T12:39:35.823Z,45.89
2023-10-06T12:42:05.160Z,45.99
2023-10-06T12:44:32.237Z,46.02
2023-10-06T12:47:04.606Z,46.14
2023-10-06T12:49:34.269Z,45.89
2023-10-06T12:52:00.948Z,46.12
2023-10-06T12:54:27.463Z,46.11
2023-10-06T12:56:54.052Z,46.07
2023-10-06T12:59:20.654Z,45.91
2023-10-06T13:01:50.203Z,45.96
2023-10-06T13:04:16.950Z,45.98
2023-10-06T13:06:43.818Z,45.95
2023-10-06T13:09:18.334Z,46.08
2023-10-06T13:11:44.998Z,45.82
2023-10-06T13:14:11.801Z,45.96
2023-10-06T13:16:38.534Z,45.95
2023-10-06T13:19:05.585Z,45.77
2023-10-06T13:21:32.174Z,45.72
2023-10-06T13:24:02.319Z,45.83
2023-10-06T13:26:42.657Z,45.71
2023-10-06T13:29:10.664Z,45.50
2023-10-06T13:31:38.434Z,45.60
2023-10-06T13:34:05.472Z,45.31
2023-10-06T13:36:32.297Z,45.14
2023-10-06T13:38:58.903Z,45.20
2023-10-06T13:41:25.603Z,45.30
2023-10-06T13:43:52.268Z,45.16
2023-10-06T13:46:19.290Z,45.14
2023-10-06T13:48:46.013Z,45.34
2023-10-06T13:51:13.140Z,45.29
2023-10-06T13:53:42.288Z,45.47
2023-10-06T13:56:09.501Z,45.64
2023-10-06T13:58:36.358Z,45.68
2023-10-06T14:01:02.993Z,45.69
2023-10-06T14:03:30.140Z,45.71
2023-10-06T14:06:00.321Z,45.74
2023-10-06T14:08:29.423Z,45.69
2023-10-06T14:10:57.764Z,45.90
2023-10-06T14:13:26.250Z,45.85
2023-10-06T14:15:56.702Z,45.91
2023-10-06T14:18:32.127Z,45.81
2023-10-06T14:20:59.418Z,45.91
2023-10-06T14:23:31.393Z,45.90
2023-10-06T14:26:01.707Z,45.98
2023-10-06T14:28:29.692Z,45.40
2023-10-06T14:31:15.574Z,45.29
2023-10-06T14:33:45.897Z,45.52
2023-10-06T14:36:15.557Z,45.35
2023-10-06T14:38:45.092Z,45.41
2023-10-06T14:41:16.586Z,45.49
2023-10-06T14:44:22.223Z,44.86
2023-10-06T14:46:51.772Z,45.33
2023-10-06T14:49:28.798Z,45.59
2023-10-06T14:52:02.193Z,45.59
2023-10-06T14:54:34.077Z,45.70
2023-10-06T14:57:02.400Z,45.98
2023-10-06T14:59:32.670Z,45.90
2023-10-06T15:02:07.547Z,46.10
2023-10-06T15:04:35.696Z,46.17
2023-10-06T15:07:03.036Z,46.29
2023-10-06T15:09:31.853Z,46.25
2023-10-06T15:11:58.462Z,46.22
2023-10-06T15:14:26.451Z,46.24
2023-10-06T15:16:54.410Z,46.47
2023-10-06T15:19:26.101Z,46.66
2023-10-06T15:21:56.043Z,46.63
2023-10-06T15:24:23.029Z,46.83
2023-10-06T15:26:51.538Z,46.79
2023-10-06T15:29:22.446Z,46.95
2023-10-06T15:31:50.319Z,47.04
2023-10-06T15:34:19.847Z,46.91
2023-10-06T15:36:46.660Z,47.09
2023-10-06T15:39:20.102Z,47.11
2023-10-06T15:41:47.864Z,47.06
2023-10-06T15:44:14.880Z,47.24
2023-10-06T15:46:42.196Z,47.33
2023-10-06T15:49:14.867Z,47.24
2023-10-06T15:51:44.012Z,47.30
2023-10-06T15:54:10.820Z,47.28
2023-10-06T15:56:39.912Z,47.37
2023-10-06T15:59:15.174Z,47.41
2023-10-06T16:01:44.346Z,47.77
2023-10-06T16:04:13.570Z,47.62
2023-10-06T16:06:42.982Z,47.53
2023-10-06T16:09:10.805Z,48.06
2023-10-06T16:11:40.832Z,47.99
2023-10-06T16:14:07.562Z,48.08
2023-10-06T16:16:35.993Z,48.54
2023-10-06T16:19:07.030Z,48.70
2023-10-06T16:21:34.456Z,48.48
2023-10-06T16:24:01.636Z,48.47
2023-10-06T16:26:31.299Z,48.66
2023-10-06T16:28:59.658Z,48.64
2023-10-06T16:31:27.317Z,48.71
2023-10-06T16:33:55.290Z,48.73
2023-10-06T16:36:23.749Z,48.79
2023-10-06T16:38:54.224Z,48.90
2023-10-06T16:41:24.239Z,49.00
2023-10-06T16:43:57.423Z,49.02
2023-10-06T16:46:24.752Z,49.02
2023-10-06T16:48:51.551Z,49.24
2023-10-06T16:51:21.586Z,49.42
2023-10-06T16:53:49.973Z,49.75
2023-10-06T16:56:19.594Z,49.84
2023-10-06T16:58:47.161Z,49.74
2023-10-06T17:01:13.849Z,49.89
2023-10-06T17:03:41.072Z,50.08
2023-10-06T17:06:12.417Z,49.88
2023-10-06T17:08:39.809Z,50.19
2023-10-06T17:11:25.194Z,50.17
2023-10-06T17:13:54.169Z,50.34
2023-10-06T17:16:21.208Z,50.48
2023-10-06T17:18:48.340Z,50.40
2023-10-06T17:21:15.825Z,50.26
2023-10-06T17:23:46.081Z,50.48
2023-10-06T17:26:16.043Z,50.74
2023-10-06T17:28:42.885Z,50.93
2023-10-06T17:31:16.049Z,50.62
2023-10-06T17:33:43.749Z,50.87
2023-10-06T17:36:10.462Z,51.05
2023-10-06T17:38:37.175Z,51.10
2023-10-06T17:41:04.845Z,51.17
2023-10-06T17:43:31.388Z,50.92
2023-10-06T17:45:58.983Z,51.25
2023-10-06T17:48:26.723Z,51.05
2023-10-06T17:50:53.678Z,51.07
2023-10-06T17:53:20.310Z,51.08
2023-10-06T17:55:57.529Z,51.19
2023-10-06T17:58:24.572Z,51.25
2023-10-06T18:00:51.361Z,51.28
2023-10-06T18:03:20.647Z,51.36
2023-10-06T18:05:49.593Z,51.51
2023-10-06T18:08:17.881Z,51.29
2023-10-06T18:10:46.179Z,51.42
2023-10-06T18:13:13.018Z,51.63
2023-10-06T18:15:39.631Z,51.46
2023-10-06T18:18:06.527Z,51.46
2023-10-06T18:20:38.950Z,51.49
2023-10-06T18:23:08.892Z,51.40
2023-10-06T18:25:37.596Z,51.68
2023-10-06T18:28:05.440Z,51.64
2023-10-06T18:30:32.614Z,51.50
2023-10-06T18:32:59.515Z,51.51
2023-10-06T18:35:26.148Z,51.65
2023-10-06T18:37:54.407Z,51.89
2023-10-06T18:40:21.212Z,51.71
2023-10-06T18:42:48.558Z,51.66
2023-10-06T18:45:15.260Z,51.86
2023-10-06T18:47:42.083Z,51.78
2023-10-06T18:50:18.949Z,51.82
2023-10-06T18:52:52.882Z,51.92
2023-10-06T18:55:23.653Z,51.88
2023-10-06T18:57:51.904Z,51.94
2023-10-06T19:00:18.704Z,51.70
2023-10-06T19:02:48.342Z,51.92
2023-10-06T19:05:15.903Z,52.02
2023-10-06T19:07:43.487Z,52.19
2023-10-06T19:10:10.845Z,51.95
2023-10-06T19:12:37.983Z,52.27
2023-10-06T19:15:09.301Z,52.03
2023-10-06T19:17:38.130Z,52.28
2023-10-06T19:20:08.504Z,52.25
2023-10-06T19:22:35.890Z,52.17
2023-10-06T19:25:03.019Z,52.03
2023-10-06T19:27:30.073Z,52.15
2023-10-06T19:29:56.644Z,52.17
2023-10-06T19:32:24.906Z,52.16
2023-10-06T19:34:52.685Z,51.92
2023-10-06T19:37:20.840Z,52.03
2023-10-06T19:39:47.715Z,52.09
2023-10-06T19:42:14.476Z,52.07
2023-10-06T19:44:44.500Z,52.03
2023-10-06T19:47:13.099Z,52.03
2023-10-06T19:49:40.238Z,52.21
2023-10-06T19:52:09.206Z,52.14
2023-10-06T19:54:36.851Z,52.17
2023-10-06T19:57:03.918Z,52.17
2023-10-06T19:59:33.625Z,52.08
2023-10-06T20:02:01.991Z,52.01
2023-10-06T20:04:28.695Z,52.02
2023-10-06T20:06:55.576Z,52.10
2023-10-06T20:09:25.170Z,51.95
2023-10-06T20:11:52.133Z,51.93
2023-10-06T20:14:18.953Z,52.17
2023-10-06T20:16:45.624Z,51.78
2023-10-06T20:19:12.678Z,51.96
2023-10-06T20:21:40.614Z,51.96
2023-10-06T20:24:09.839Z,51.82
2023-10-06T20:26:36.753Z,52.08
2023-10-06T20:29:10.478Z,52.08
2023-10-06T20:31:41.184Z,51.83
2023-10-06T20:34:08.532Z,51.69
2023-10-06T20:36:35.648Z,51.72
2023-10-06T20:39:09.623Z,51.75
2023-10-06T20:41:40.286Z,51.65
2023-10-06T20:44:13.727Z,51.78
2023-10-06T20:46:41.154Z,51.54
2023-10-06T20:49:11.715Z,51.64
2023-10-06T20:51:38.360Z,51.67
2023-10-06T20:54:05.204Z,51.66
2023-10-06T20:56:31.905Z,51.73
2023-10-06T20:58:58.985Z,51.64
2023-10-06T21:01:26.045Z,51.50
2023-10-06T21:03:53.108Z,51.40
2023-10-06T21:06:19.835Z,51.58
2023-10-06T21:08:47.818Z,51.65
2023-10-06T21:11:14.422Z,51.45
2023-10-06T21:13:41.036Z,51.42
2023-10-06T21:16:07.769Z,51.53
2023-10-06T21:18:34.391Z,51.44
2023-10-06T21:21:00.993Z,51.53
2023-10-06T21:23:28.690Z,51.45
2023-10-06T21:25:55.322Z,51.48
2023-10-06T21:28:23.905Z,51.31
2023-10-06T21:30:50.670Z,51.36
2023-10-06T21:33:17.297Z,51.30
2023-10-06T21:35:43.834Z,51.40
2023-10-06T21:38:10.396Z,51.43
2023-10-06T21:40:39.091Z,51.27
2023-10-06T21:43:05.921Z,51.35
2023-10-06T21:45:32.481Z,51.11
2023-10-06T21:47:59.091Z,51.05
2023-10-06T21:50:25.791Z,51.09
2023-10-06T21:52:53.130Z,51.07
2023-10-06T21:55:19.730Z,51.04
2023-10-06T21:57:46.345Z,51.11
2023-10-06T22:00:26.389Z,50.84
2023-10-06T22:02:54.894Z,50.82
2023-10-06T22:05:21.959Z,50.93
2023-10-06T22:07:52.434Z,50.77
2023-10-06T22:10:19.326Z,50.75
2023-10-06T22:12:48.672Z,50.76
2023-10-06T22:15:15.724Z,50.68
2023-10-06T22:17:42.457Z,50.62
2023-10-06T22:20:09.935Z,50.50
2023-10-06T22:22:37.875Z,50.82
2023-10-06T22:25:06.075Z,50.56
2023-10-06T22:27:34.002Z,50.53
2023-10-06T22:30:00.924Z,50.56
2023-10-06T22:32:27.671Z,50.48
2023-10-06T22:34:54.847Z,50.63
2023-10-06T22:37:26.264Z,50.48
2023-10-06T22:39:52.949Z,50.31
2023-10-06T22:42:19.539Z,50.30
2023-10-06T22:44:46.406Z,50.43
2023-10-06T22:47:13.061Z,50.40
2023-10-06T22:49:40.983Z,50.17
2023-10-06T22:52:07.540Z,50.10
2023-10-06T22:54:34.181Z,50.14
2023-10-06T22:57:00.911Z,49.94
2023-10-06T22:59:27.444Z,49.88
2023-10-06T23:01:55.028Z,49.91
2023-10-06T23:04:22.274Z,49.95
2023-10-06T23:06:49.239Z,49.93
2023-10-06T23:09:18.416Z,49.74
2023-10-06T23:11:45.655Z,49.95
2023-10-06T23:14:12.444Z,49.92
2023-10-06T23:16:40.774Z,49.72
2023-10-06T23:19:13.796Z,49.81
2023-10-06T23:21:44.103Z,50.03
2023-10-06T23:24:16.218Z,49.78
2023-10-06T23:26:46.062Z,49.81
2023-10-06T23:29:13.709Z,49.67
2023-10-06T23:31:41.394Z,49.63
2023-10-06T23:34:08.359Z,49.67
2023-10-06T23:36:35.317Z,49.75
2023-10-06T23:39:02.172Z,49.64
2023-10-06T23:41:30.646Z,49.64
2023-10-06T23:43:57.506Z,49.64
2023-10-06T23:46:26.477Z,49.61
2023-10-06T23:48:54.299Z,49.40
2023-10-06T23:51:22.146Z,49.48
2023-10-06T23:53:52.773Z,49.37
2023-10-06T23:56:26.339Z,49.47
2023-10-06T23:58:56.661Z,49.31
